Tri-City Airport

About
Name: Tri-City Airport
Identifier:  PPF/KPPF
Local Time:  18. Aug 08:49 CDT
Location
Flights per Day
0 flights
Distance: 214km (133mi)
Punctuality
0% (0 flights per day delayed)
Delay Average: 16 minutes
Current Weather
 22 C (Humidity: 94%)
  6kt (11km/h / 6mph) from 300°
  Few clouds at 200 feet (60 meter)
  16km (10 mi.)
 METAR KPPF 181319Z AUTO 30006KT 10SM FEW002 22/21 A2994 RMK AO2 LTG DSNT NW T02170211

Current Flights

Departures
Number Departure To Airline
Arrivals
Number Arrival From Airline

Current Delays

Departures
N/A
Arrivals
N/A

Destinations

Top Destinations
Airport Flights
per week
Seats
per week
  Kansas City (MKC) 0 - 0 0
  Springfield (SGF) 0 - 0 0
  Bemidji (BJI) 0 - 0 0
  Brainerd (BRD) 0 - 0 0

Airlines & Planes

Top Airlines
Airline Flights
per Day
Seats
per Day
Nordwind Airlines 0 -
Top Plane Types
Model Flights Seats
Beech E90 King Air 0.1/day - 0
Beech B200 Super King Air 0.1/day - 0